Gladys S — WDB9526 — position and weather

sailwx.info

Track history (hours):
 
Tides and Currents Weather Stations Pressure Air Temp Water Temp Dewpoint Dewpoint Depression Visibility Wind Speed Wind Dir Waves Ship Positions

Gladys S

Owner: AMERICAN WORKBOATS, TERMINAL ISLAND, CA. More information available from US FCC via Universal Licensing System and Coast Guard Vessel Documentation Center.

Last reported at 2018-Jun-19 20:07 UTC. Time now 2018-Jun-20 15:04 UTC.
Position N 33°44' W 118°16'.

; draft 6.9 m.

Type: Military. MMSI: 366977850.

Date/timePositionNaut miles runAvg speedWind from/ knotsBaromVisibWave heightAir tempDewpointWater temp
2018-Jun-19 20:07N 33°44' W 118°16'0 1.6
2018-Jun-19 20:01N 33°44' W 118°16'0 0.2
2018-Jun-19 19:30N 33°44' W 118°16'0 0.0
2018-Jun-17 23:50N 33°44' W 118°16'0 0.3
2018-Jun-17 23:31N 33°44' W 118°16'3 6.4
2018-Jun-17 23:00N 33°41' W 118°16'715.0
2018-Jun-17 22:30N 33°35' W 118°22'1 0.6
2018-Jun-17 20:24N 33°34' W 118°23'615.2
2018-Jun-17 20:00N 33°39' W 118°19'611.5
2018-Jun-17 19:30N 33°44' W 118°16'0 0.0
2018-Jun-17 17:11N 33°44' W 118°16'0 0.7
2018-Jun-17 17:00N 33°44' W 118°16'0 0.4
2018-Jun-17 16:30N 33°44' W 118°16'0 0.0
2018-Jun-17 16:00N 33°44' W 118°16'0 0.4
2018-Jun-17 15:30N 33°44' W 118°16'0 0.3
2018-Jun-17 15:00N 33°44' W 118°16'0 0.0
2018-Jun-16 17:09N 33°44' W 118°16'0 0.4
2018-Jun-16 17:00N 33°44' W 118°16'714.8
2018-Jun-16 16:30N 33°37' W 118°12'816.8
2018-Jun-16 16:00N 33°30' W 118°07'2316.9
2018-Jun-16 14:39N 33°09' W 117°55'1 6.6
2018-Jun-16 14:28N 33°08' W 117°55'1 1.2
2018-Jun-16 14:00N 33°08' W 117°55'2 4.5
2018-Jun-16 13:29N 33°08' W 117°52'2515.7
2018-Jun-16 11:51N 33°28' W 118°10'616.9
2018-Jun-16 11:30N 33°34' W 118°12'816.9
2018-Jun-16 11:00N 33°42' W 118°15'2 0.1
2018-Jun-15 21:00N 33°44' W 118°16'713.9
2018-Jun-15 20:30N 33°38' W 118°20'917.4
2018-Jun-15 20:00N 33°32' W 118°28'2 0.9
2018-Jun-15 17:29N 33°32' W 118°25'816.0
2018-Jun-15 17:00N 33°38' W 118°19'612.4
2018-Jun-15 16:30N 33°44' W 118°16'0 0.7
2018-Jun-15 16:00N 33°44' W 118°16'0 0.0
2018-Jun-15 15:30N 33°44' W 118°16'0 0.0
2018-Jun-15 15:00N 33°44' W 118°16'0 0.0
2018-Jun-15 14:30N 33°44' W 118°16'0 0.0
2018-Jun-15 02:20N 33°44' W 118°16'0 0.0
2018-Jun-15 00:55N 33°44' W 118°16'511.7
2018-Jun-15 00:31N 33°40' W 118°14'815.5
2018-Jun-15 00:00N 33°32' W 118°15'815.7
2018-Jun-14 23:30N 33°24' W 118°16'816.0
2018-Jun-14 22:59N 33°16' W 118°18'715.5
2018-Jun-14 22:30N 33°10' W 118°24'12 6.4
2018-Jun-14 20:36N 33°01' W 118°34'0 0.0
2018-Jun-14 20:29N 33°01' W 118°34'0 0.0
2018-Jun-14 19:52N 33°01' W 118°34'0 0.0
2018-Jun-14 19:23N 33°01' W 118°34'0 0.1
2018-Jun-14 18:53N 33°01' W 118°34'0 0.0
2018-Jun-14 17:38N 33°01' W 118°34'0 0.0
2018-Jun-14 17:28N 33°01' W 118°34'0 0.1
2018-Jun-14 17:00N 33°01' W 118°34'0 0.0
2018-Jun-14 16:30N 33°01' W 118°34'0 0.0
2018-Jun-14 16:00N 33°01' W 118°34'0 0.0
2018-Jun-14 15:26N 33°01' W 118°34'0 0.0
2018-Jun-14 14:57N 33°01' W 118°34'0 0.0
2018-Jun-14 14:28N 33°01' W 118°34'0 0.1
2018-Jun-14 13:54N 33°01' W 118°34'0 0.0
2018-Jun-14 12:32N 33°01' W 118°34'0 0.0
2018-Jun-14 12:22N 33°01' W 118°34'0 0.1
2018-Jun-14 11:58N 33°01' W 118°34'0 0.0
2018-Jun-14 11:26N 33°01' W 118°34'0 0.1
2018-Jun-14 10:37N 33°01' W 118°34'0 0.0
2018-Jun-14 10:24N 33°01' W 118°34'0 0.0
2018-Jun-14 09:56N 33°01' W 118°34'0 0.0
2018-Jun-14 09:30N 33°01' W 118°34'0 0.0
2018-Jun-14 08:59N 33°01' W 118°34'0 0.0
2018-Jun-14 08:28N 33°01' W 118°34'0 0.0
2018-Jun-14 07:58N 33°01' W 118°34'0 0.0
2018-Jun-14 07:30N 33°01' W 118°34'0 0.0
2018-Jun-14 06:54N 33°01' W 118°34'0 0.0
2018-Jun-14 06:25N 33°01' W 118°34'0 0.0
2018-Jun-14 04:51N 33°01' W 118°34'0 0.0
2018-Jun-14 03:18N 33°01' W 118°34'0 0.0
2018-Jun-14 03:00N 33°01' W 118°34'0 0.0
2018-Jun-14 02:30N 33°01' W 118°34'0 0.0
2018-Jun-14 02:00N 33°01' W 118°34'0 0.0
2018-Jun-14 01:30N 33°01' W 118°34'0 0.0
2018-Jun-14 00:55N 33°01' W 118°34'0 0.0
2018-Jun-14 00:30N 33°01' W 118°34'0 0.0
2018-Jun-14 00:00N 33°01' W 118°34'0 0.0
2018-Jun-13 22:58N 33°01' W 118°34'0 0.0
2018-Jun-13 22:30N 33°01' W 118°34'0 0.2
2018-Jun-13 22:00N 33°01' W 118°34'0 0.0
2018-Jun-13 21:29N 33°01' W 118°34'0 0.0
2018-Jun-13 20:35N 33°01' W 118°34'0 0.0
2018-Jun-13 20:27N 33°01' W 118°34'0 0.0
2018-Jun-13 19:25N 33°01' W 118°34'0 0.2
2018-Jun-13 19:00N 33°01' W 118°34'0 0.0
2018-Jun-13 18:18N 33°01' W 118°34'0 0.0
2018-Jun-13 13:47N 33°01' W 118°34'0 0.0
2018-Jun-13 13:18N 33°01' W 118°34'0 0.0
2018-Jun-13 12:55N 33°01' W 118°34'0 0.0
2018-Jun-13 12:30N 33°01' W 118°34'0 0.0
2018-Jun-13 12:00N 33°01' W 118°34'0 0.0
2018-Jun-13 11:14N 33°01' W 118°34'0 0.0
2018-Jun-13 11:00N 33°01' W 118°34'0 0.0
2018-Jun-13 10:27N 33°01' W 118°34'0 0.0
2018-Jun-13 09:53N 33°01' W 118°34'0 0.0
2018-Jun-13 08:23N 33°01' W 118°34'0 0.0
2018-Jun-13 07:58N 33°01' W 118°34'0 0.0
2018-Jun-13 07:30N 33°01' W 118°34'0 0.0
2018-Jun-13 07:00N 33°01' W 118°34'0 0.0
2018-Jun-13 06:30N 33°01' W 118°34'0 0.1
2018-Jun-13 05:57N 33°01' W 118°34'0 0.1
2018-Jun-13 05:18N 33°01' W 118°34'0 0.1
2018-Jun-13 04:57N 33°01' W 118°34'0 0.0
2018-Jun-13 03:54N 33°01' W 118°34'0 0.1
2018-Jun-13 00:25N 33°01' W 118°34'0 0.0
2018-Jun-12 23:58N 33°01' W 118°34'0 0.1
2018-Jun-12 23:30N 33°01' W 118°34'0 0.0
2018-Jun-12 23:00N 33°01' W 118°34'0 0.0
2018-Jun-12 22:10N 33°01' W 118°34'0 0.0
2018-Jun-12 20:41N 33°01' W 118°34'0 0.0
2018-Jun-12 20:21N 33°01' W 118°34'0 0.0
2018-Jun-12 20:00N 33°01' W 118°34'0 0.1
2018-Jun-12 19:30N 33°01' W 118°34'0 0.1
2018-Jun-12 19:01N 33°01' W 118°34'0 0.1
2018-Jun-12 18:30N 33°01' W 118°34'0 0.0
2018-Jun-12 16:48N 33°01' W 118°34'0 0.2
2018-Jun-12 16:31N 33°01' W 118°34'0 0.1
2018-Jun-12 16:00N 33°01' W 118°34'0 0.0
2018-Jun-12 15:31N 33°01' W 118°34'0 0.0
2018-Jun-12 15:00N 33°01' W 118°34'0 0.0
2018-Jun-12 14:31N 33°01' W 118°34'0 0.0
2018-Jun-12 14:01N 33°01' W 118°34'0 0.1
2018-Jun-12 13:29N 33°01' W 118°34'0 0.0
2018-Jun-12 12:56N 33°01' W 118°34'0 0.0
2018-Jun-12 11:08N 33°01' W 118°34'0 0.0
2018-Jun-12 10:17N 33°01' W 118°34'0 0.0
2018-Jun-12 09:14N 33°01' W 118°34'0 0.0
2018-Jun-12 08:56N 33°01' W 118°34'0 0.0
2018-Jun-12 08:26N 33°01' W 118°34'0 0.0
2018-Jun-12 08:00N 33°01' W 118°34'0 0.0
2018-Jun-12 07:28N 33°01' W 118°34'0 0.0
2018-Jun-12 06:54N 33°01' W 118°34'0 0.0
2018-Jun-12 06:30N 33°01' W 118°34'0 0.0
2018-Jun-12 06:00N 33°01' W 118°34'0 0.0
2018-Jun-12 05:29N 33°01' W 118°34'0 0.0
2018-Jun-12 04:59N 33°01' W 118°34'0 0.0
2018-Jun-12 04:31N 33°01' W 118°34'0 0.0
2018-Jun-12 03:00N 33°01' W 118°34'1 1.9
2018-Jun-12 02:30N 33°00' W 118°33'0 0.1
2018-Jun-12 02:00N 33°00' W 118°33'0 0.0
2018-Jun-12 01:30N 33°00' W 118°33'0 0.0
2018-Jun-12 00:27N 33°00' W 118°33'0 0.0
2018-Jun-11 16:38N 33°00' W 118°33'0 0.1
2018-Jun-11 16:26N 33°00' W 118°33'0 0.9
2018-Jun-11 16:00N 33°01' W 118°33'0 0.0
2018-Jun-11 15:30N 33°01' W 118°33'0 0.0
2018-Jun-11 15:00N 33°01' W 118°33'0 0.0
2018-Jun-11 14:30N 33°01' W 118°33'0 0.0
2018-Jun-11 14:00N 33°01' W 118°33'0 0.1
2018-Jun-11 12:42N 33°01' W 118°33'1 7.1
2018-Jun-11 12:30N 33°02' W 118°33'611.4
2018-Jun-11 12:00N 33°07' W 118°28'713.6
2018-Jun-11 11:27N 33°12' W 118°22'614.7
2018-Jun-11 11:00N 33°16' W 118°17'714.1
2018-Jun-11 10:30N 33°24' W 118°16'714.3
2018-Jun-11 10:00N 33°31' W 118°14'714.5
2018-Jun-11 09:30N 33°38' W 118°13'612.7
2018-Jun-11 09:00N 33°44' W 118°16'0 0.8
2018-Jun-11 08:30N 33°44' W 118°16'0 0.0
2018-Jun-11 08:00N 33°44' W 118°16'0 0.0
2018-Jun-10 23:01N 33°44' W 118°16'0 3.6
2018-Jun-10 23:00N 33°44' W 118°16'0 0.1
2018-Jun-10 22:30N 33°44' W 118°16'0 0.1
2018-Jun-10 22:00N 33°44' W 118°16'0 0.0
2018-Jun-10 21:30N 33°44' W 118°16'0 0.0
2018-Jun-10 21:00N 33°44' W 118°16'0 0.0
2018-Jun-10 20:30N 33°44' W 118°16'0 0.1
2018-Jun-10 20:00N 33°44' W 118°16'0 0.0
2018-Jun-10 17:10N 33°44' W 118°16'1 4.5
2018-Jun-10 17:00N 33°43' W 118°16'1 1.1
2018-Jun-10 16:30N 33°44' W 118°16'1 1.1
2018-Jun-10 16:00N 33°44' W 118°16'0 0.0
2018-Jun-09 22:28N 33°44' W 118°16'1 1.2
2018-Jun-09 22:00N 33°43' W 118°16'916.9
2018-Jun-09 21:30N 33°36' W 118°10'1017.6
2018-Jun-09 20:56N 33°27' W 118°05'1217.5
2018-Jun-09 20:15N 33°16' W 118°02'  
Track history (hours):
 
Tides and Currents Weather Stations Pressure Air Temp Water Temp Dewpoint Dewpoint Depression Visibility Wind Speed Wind Dir Waves Ship Positions

Gladys S

Owner: AMERICAN WORKBOATS, TERMINAL ISLAND, CA. More information available from US FCC via Universal Licensing System and Coast Guard Vessel Documentation Center.

Last reported at 2018-Jun-19 20:07 UTC. Time now 2018-Jun-20 15:04 UTC.
Position N 33°44' W 118°16'.

; draft 6.9 m.

Type: Military. MMSI: 366977850.

Date/timePositionNaut miles runAvg speedWind from/ knotsBaromVisibWave heightAir tempDewpointWater temp
2018-Jun-19 20:07N 33°44' W 118°16'0 1.6
2018-Jun-19 20:01N 33°44' W 118°16'0 0.2
2018-Jun-19 19:30N 33°44' W 118°16'0 0.0
2018-Jun-17 23:50N 33°44' W 118°16'0 0.3
2018-Jun-17 23:31N 33°44' W 118°16'3 6.4
2018-Jun-17 23:00N 33°41' W 118°16'715.0
2018-Jun-17 22:30N 33°35' W 118°22'1 0.6
2018-Jun-17 20:24N 33°34' W 118°23'615.2
2018-Jun-17 20:00N 33°39' W 118°19'611.5
2018-Jun-17 19:30N 33°44' W 118°16'0 0.0
2018-Jun-17 17:11N 33°44' W 118°16'0 0.7
2018-Jun-17 17:00N 33°44' W 118°16'0 0.4
2018-Jun-17 16:30N 33°44' W 118°16'0 0.0
2018-Jun-17 16:00N 33°44' W 118°16'0 0.4
2018-Jun-17 15:30N 33°44' W 118°16'0 0.3
2018-Jun-17 15:00N 33°44' W 118°16'0 0.0
2018-Jun-16 17:09N 33°44' W 118°16'0 0.4
2018-Jun-16 17:00N 33°44' W 118°16'714.8
2018-Jun-16 16:30N 33°37' W 118°12'816.8
2018-Jun-16 16:00N 33°30' W 118°07'2316.9
2018-Jun-16 14:39N 33°09' W 117°55'1 6.6
2018-Jun-16 14:28N 33°08' W 117°55'1 1.2
2018-Jun-16 14:00N 33°08' W 117°55'2 4.5
2018-Jun-16 13:29N 33°08' W 117°52'2515.7
2018-Jun-16 11:51N 33°28' W 118°10'616.9
2018-Jun-16 11:30N 33°34' W 118°12'816.9
2018-Jun-16 11:00N 33°42' W 118°15'2 0.1
2018-Jun-15 21:00N 33°44' W 118°16'713.9
2018-Jun-15 20:30N 33°38' W 118°20'917.4
2018-Jun-15 20:00N 33°32' W 118°28'2 0.9
2018-Jun-15 17:29N 33°32' W 118°25'816.0
2018-Jun-15 17:00N 33°38' W 118°19'612.4
2018-Jun-15 16:30N 33°44' W 118°16'0 0.7
2018-Jun-15 16:00N 33°44' W 118°16'0 0.0
2018-Jun-15 15:30N 33°44' W 118°16'0 0.0
2018-Jun-15 15:00N 33°44' W 118°16'0 0.0
2018-Jun-15 14:30N 33°44' W 118°16'0 0.0
2018-Jun-15 02:20N 33°44' W 118°16'0 0.0
2018-Jun-15 00:55N 33°44' W 118°16'511.7
2018-Jun-15 00:31N 33°40' W 118°14'815.5
2018-Jun-15 00:00N 33°32' W 118°15'815.7
2018-Jun-14 23:30N 33°24' W 118°16'816.0
2018-Jun-14 22:59N 33°16' W 118°18'715.5
2018-Jun-14 22:30N 33°10' W 118°24'12 6.4
2018-Jun-14 20:36N 33°01' W 118°34'0 0.0
2018-Jun-14 20:29N 33°01' W 118°34'0 0.0
2018-Jun-14 19:52N 33°01' W 118°34'0 0.0
2018-Jun-14 19:23N 33°01' W 118°34'0 0.1
2018-Jun-14 18:53N 33°01' W 118°34'0 0.0
2018-Jun-14 17:38N 33°01' W 118°34'0 0.0
2018-Jun-14 17:28N 33°01' W 118°34'0 0.1
2018-Jun-14 17:00N 33°01' W 118°34'0 0.0
2018-Jun-14 16:30N 33°01' W 118°34'0 0.0
2018-Jun-14 16:00N 33°01' W 118°34'0 0.0
2018-Jun-14 15:26N 33°01' W 118°34'0 0.0
2018-Jun-14 14:57N 33°01' W 118°34'0 0.0
2018-Jun-14 14:28N 33°01' W 118°34'0 0.1
2018-Jun-14 13:54N 33°01' W 118°34'0 0.0
2018-Jun-14 12:32N 33°01' W 118°34'0 0.0
2018-Jun-14 12:22N 33°01' W 118°34'0 0.1
2018-Jun-14 11:58N 33°01' W 118°34'0 0.0
2018-Jun-14 11:26N 33°01' W 118°34'0 0.1
2018-Jun-14 10:37N 33°01' W 118°34'0 0.0
2018-Jun-14 10:24N 33°01' W 118°34'0 0.0
2018-Jun-14 09:56N 33°01' W 118°34'0 0.0
2018-Jun-14 09:30N 33°01' W 118°34'0 0.0
2018-Jun-14 08:59N 33°01' W 118°34'0 0.0
2018-Jun-14 08:28N 33°01' W 118°34'0 0.0
2018-Jun-14 07:58N 33°01' W 118°34'0 0.0
2018-Jun-14 07:30N 33°01' W 118°34'0 0.0
2018-Jun-14 06:54N 33°01' W 118°34'0 0.0
2018-Jun-14 06:25N 33°01' W 118°34'0 0.0
2018-Jun-14 04:51N 33°01' W 118°34'0 0.0
2018-Jun-14 03:18N 33°01' W 118°34'0 0.0
2018-Jun-14 03:00N 33°01' W 118°34'0 0.0
2018-Jun-14 02:30N 33°01' W 118°34'0 0.0
2018-Jun-14 02:00N 33°01' W 118°34'0 0.0
2018-Jun-14 01:30N 33°01' W 118°34'0 0.0
2018-Jun-14 00:55N 33°01' W 118°34'0 0.0
2018-Jun-14 00:30N 33°01' W 118°34'0 0.0
2018-Jun-14 00:00N 33°01' W 118°34'0 0.0
2018-Jun-13 22:58N 33°01' W 118°34'0 0.0
2018-Jun-13 22:30N 33°01' W 118°34'0 0.2
2018-Jun-13 22:00N 33°01' W 118°34'0 0.0
2018-Jun-13 21:29N 33°01' W 118°34'0 0.0
2018-Jun-13 20:35N 33°01' W 118°34'0 0.0
2018-Jun-13 20:27N 33°01' W 118°34'0 0.0
2018-Jun-13 19:25N 33°01' W 118°34'0 0.2
2018-Jun-13 19:00N 33°01' W 118°34'0 0.0
2018-Jun-13 18:18N 33°01' W 118°34'0 0.0
2018-Jun-13 13:47N 33°01' W 118°34'0 0.0
2018-Jun-13 13:18N 33°01' W 118°34'0 0.0
2018-Jun-13 12:55N 33°01' W 118°34'0 0.0
2018-Jun-13 12:30N 33°01' W 118°34'0 0.0
2018-Jun-13 12:00N 33°01' W 118°34'0 0.0
2018-Jun-13 11:14N 33°01' W 118°34'0 0.0
2018-Jun-13 11:00N 33°01' W 118°34'0 0.0
2018-Jun-13 10:27N 33°01' W 118°34'0 0.0
2018-Jun-13 09:53N 33°01' W 118°34'0 0.0
2018-Jun-13 08:23N 33°01' W 118°34'0 0.0
2018-Jun-13 07:58N 33°01' W 118°34'0 0.0
2018-Jun-13 07:30N 33°01' W 118°34'0 0.0
2018-Jun-13 07:00N 33°01' W 118°34'0 0.0
2018-Jun-13 06:30N 33°01' W 118°34'0 0.1
2018-Jun-13 05:57N 33°01' W 118°34'0 0.1
2018-Jun-13 05:18N 33°01' W 118°34'0 0.1
2018-Jun-13 04:57N 33°01' W 118°34'0 0.0
2018-Jun-13 03:54N 33°01' W 118°34'0 0.1
2018-Jun-13 00:25N 33°01' W 118°34'0 0.0
2018-Jun-12 23:58N 33°01' W 118°34'0 0.1
2018-Jun-12 23:30N 33°01' W 118°34'0 0.0
2018-Jun-12 23:00N 33°01' W 118°34'0 0.0
2018-Jun-12 22:10N 33°01' W 118°34'0 0.0
2018-Jun-12 20:41N 33°01' W 118°34'0 0.0
2018-Jun-12 20:21N 33°01' W 118°34'0 0.0
2018-Jun-12 20:00N 33°01' W 118°34'0 0.1
2018-Jun-12 19:30N 33°01' W 118°34'0 0.1
2018-Jun-12 19:01N 33°01' W 118°34'0 0.1
2018-Jun-12 18:30N 33°01' W 118°34'0 0.0
2018-Jun-12 16:48N 33°01' W 118°34'0 0.2
2018-Jun-12 16:31N 33°01' W 118°34'0 0.1
2018-Jun-12 16:00N 33°01' W 118°34'0 0.0
2018-Jun-12 15:31N 33°01' W 118°34'0 0.0
2018-Jun-12 15:00N 33°01' W 118°34'0 0.0
2018-Jun-12 14:31N 33°01' W 118°34'0 0.0
2018-Jun-12 14:01N 33°01' W 118°34'0 0.1
2018-Jun-12 13:29N 33°01' W 118°34'0 0.0
2018-Jun-12 12:56N 33°01' W 118°34'0 0.0
2018-Jun-12 11:08N 33°01' W 118°34'0 0.0
2018-Jun-12 10:17N 33°01' W 118°34'0 0.0
2018-Jun-12 09:14N 33°01' W 118°34'0 0.0
2018-Jun-12 08:56N 33°01' W 118°34'0 0.0
2018-Jun-12 08:26N 33°01' W 118°34'0 0.0
2018-Jun-12 08:00N 33°01' W 118°34'0 0.0
2018-Jun-12 07:28N 33°01' W 118°34'0 0.0
2018-Jun-12 06:54N 33°01' W 118°34'0 0.0
2018-Jun-12 06:30N 33°01' W 118°34'0 0.0
2018-Jun-12 06:00N 33°01' W 118°34'0 0.0
2018-Jun-12 05:29N 33°01' W 118°34'0 0.0
2018-Jun-12 04:59N 33°01' W 118°34'0 0.0
2018-Jun-12 04:31N 33°01' W 118°34'0 0.0
2018-Jun-12 03:00N 33°01' W 118°34'1 1.9
2018-Jun-12 02:30N 33°00' W 118°33'0 0.1
2018-Jun-12 02:00N 33°00' W 118°33'0 0.0
2018-Jun-12 01:30N 33°00' W 118°33'0 0.0
2018-Jun-12 00:27N 33°00' W 118°33'0 0.0
2018-Jun-11 16:38N 33°00' W 118°33'0 0.1
2018-Jun-11 16:26N 33°00' W 118°33'0 0.9
2018-Jun-11 16:00N 33°01' W 118°33'0 0.0
2018-Jun-11 15:30N 33°01' W 118°33'0 0.0
2018-Jun-11 15:00N 33°01' W 118°33'0 0.0
2018-Jun-11 14:30N 33°01' W 118°33'0 0.0
2018-Jun-11 14:00N 33°01' W 118°33'0 0.1
2018-Jun-11 12:42N 33°01' W 118°33'1 7.1
2018-Jun-11 12:30N 33°02' W 118°33'611.4
2018-Jun-11 12:00N 33°07' W 118°28'713.6
2018-Jun-11 11:27N 33°12' W 118°22'614.7
2018-Jun-11 11:00N 33°16' W 118°17'714.1
2018-Jun-11 10:30N 33°24' W 118°16'714.3
2018-Jun-11 10:00N 33°31' W 118°14'714.5
2018-Jun-11 09:30N 33°38' W 118°13'612.7
2018-Jun-11 09:00N 33°44' W 118°16'0 0.8
2018-Jun-11 08:30N 33°44' W 118°16'0 0.0
2018-Jun-11 08:00N 33°44' W 118°16'0 0.0
2018-Jun-10 23:01N 33°44' W 118°16'0 3.6
2018-Jun-10 23:00N 33°44' W 118°16'0 0.1
2018-Jun-10 22:30N 33°44' W 118°16'0 0.1
2018-Jun-10 22:00N 33°44' W 118°16'0 0.0
2018-Jun-10 21:30N 33°44' W 118°16'0 0.0
2018-Jun-10 21:00N 33°44' W 118°16'0 0.0
2018-Jun-10 20:30N 33°44' W 118°16'0 0.1
2018-Jun-10 20:00N 33°44' W 118°16'0 0.0
2018-Jun-10 17:10N 33°44' W 118°16'1 4.5
2018-Jun-10 17:00N 33°43' W 118°16'1 1.1
2018-Jun-10 16:30N 33°44' W 118°16'1 1.1
2018-Jun-10 16:00N 33°44' W 118°16'0 0.0
2018-Jun-09 22:28N 33°44' W 118°16'1 1.2
2018-Jun-09 22:00N 33°43' W 118°16'916.9
2018-Jun-09 21:30N 33°36' W 118°10'1017.6
2018-Jun-09 20:56N 33°27' W 118°05'1217.5
2018-Jun-09 20:15N 33°16' W 118°02'  

Dump ship's entire track history